MET'MAP v2.0
soon released !

Expected late october,
this new version will be
more efficient, smarter,
and hosted on a brand new
server x3 powerfull...
...and still free !


Not compatible ?
Try the mobile version !

LOG IN : | Subscribe | Disclaimer | Who is Orbifly ? |
ICAO code :
Legend : VFR Marginal VFR IFR Intensive IFR Very Intensive IFR
Visi :
Ceiling :
>= 8 km
>= 3000ft
5 to 8 km
1000 to 3000 ft
1500m to 5 km
500 to 1000 ft
800 to 1500m
200 to 500 ft
< 800m
< 200 ft

METAR - EGGW London Luton - 25 Feb 2020 17:26 UTC
Data Sources :     NOAA   


- Airport Elevation : 526 ft
- IATA code : LTN
- No reported NOTAMs.


EGGW - London Luton

Latest METAR recorded : 2015/08/11 07:50 EGGW 110750Z 36006KT CAVOK 15/11 Q1019
TAF TAF EGGW
Valid from the 25 at 12:00 until the 26 at 12:00 UTC


251108Z 2512/2612 27014KT 9999 FEW010 SCT030
TEMPO 2512/2518 27017G27KT 5000 SHRAGS BKN010
TEMPO 2518/2601 3000 +SHRAGS SHRASN BKN006
PROB30
TEMPO 2518/2601 1200 SHSN BKN004 BKN020CB
PROB30
TEMPO 2601/2609 29017G27KT 3000 -SHSN BKN006
TEMPO 2609/2612 29017G27KT 5000 SHRAGS BKN010

Source NOAA
ATIS : +44 1582 395 204


MET'MAP, your aeronautical weather chart ! - Copyright ORBIFLY December 2007

Programming & Development : Alexandra Zaïnal
Co-Developer : Marc-Olivier Méhu
Technical & hardware support : Manuel Goepfert
Concept & Financing : Baudouin d'Aumeries